AUA29V EBBR-LOWW
Flight info
| Callsign | AUA29V |
|---|---|
| Flight time | 1h 9m |
| Altitude | 35000 |
| Route | SOPO4M SOPOK Y863 ROPUV L607 EMGOD BOMBI BARSU EKSOS LULAR RUDAP BUDEX BUDE2W |
| Aircraft | A320/M-SDE3FGHIRWY/LB1 |
Departure
| Time | 2026-05-04 08:27 |
|---|---|
| Airport | Brussels Airport (EBBR) |
Arrival
| Time | 2026-05-04 09:37 |
|---|---|
| Airport | Vienna International Airport (LOWW) |
| Time | Latitude | Longitude | Altitude | Speed | Heading |
|---|---|---|---|---|---|
| 2026-05-04 07:58 | 50.90362 | 4.48882 | 119 ft | 0 kts | 335° |
| 2026-05-04 08:20 | 50.90353 | 4.48888 | 121 ft | 4 kts | 334° |
| 2026-05-04 08:20 | 50.90328 | 4.48907 | 117 ft | 4 kts | 334° |
| 2026-05-04 08:20 | 50.90304 | 4.48923 | 118 ft | 4 kts | 351° |
| 2026-05-04 08:20 | 50.90286 | 4.48921 | 120 ft | 2 kts | 64° |
| 2026-05-04 08:21 | 50.90285 | 4.48919 | 120 ft | 0 kts | 65° |
| 2026-05-04 08:21 | 50.90285 | 4.48918 | 120 ft | 0 kts | 65° |
| 2026-05-04 08:24 | 50.90750 | 4.49714 | 123 ft | 23 kts | 14° |
| 2026-05-04 08:24 | 50.90895 | 4.49774 | 121 ft | 12 kts | 17° |
| 2026-05-04 08:24 | 50.90940 | 4.49808 | 122 ft | 7 kts | 33° |
| 2026-05-04 08:24 | 50.91050 | 4.49925 | 117 ft | 22 kts | 26° |
| 2026-05-04 08:25 | 50.91127 | 4.49845 | 117 ft | 18 kts | 251° |
| 2026-05-04 08:25 | 50.91038 | 4.49536 | 119 ft | 61 kts | 245° |
| 2026-05-04 08:25 | 50.90768 | 4.48601 | 120 ft | 123 kts | 245° |
| 2026-05-04 08:25 | 50.90338 | 4.47126 | 170 ft | 165 kts | 244° |
| 2026-05-04 08:26 | 50.89863 | 4.45451 | 731 ft | 167 kts | 245° |
| 2026-05-04 08:27 | 50.82909 | 4.47093 | 5044 ft | 269 kts | 122° |
| 2026-05-04 08:28 | 50.81884 | 4.49602 | 5978 ft | 274 kts | 124° |
| 2026-05-04 08:28 | 50.80801 | 4.52102 | 6881 ft | 277 kts | 126° |
| 2026-05-04 08:28 | 50.79663 | 4.54583 | 7768 ft | 281 kts | 128° |
| 2026-05-04 08:28 | 50.78474 | 4.57069 | 8648 ft | 285 kts | 129° |
| 2026-05-04 08:29 | 50.77249 | 4.59566 | 9547 ft | 289 kts | 130° |
| 2026-05-04 08:29 | 50.75993 | 4.62088 | 10326 ft | 298 kts | 130° |
| 2026-05-04 08:29 | 50.74653 | 4.64746 | 10635 ft | 322 kts | 131° |
| 2026-05-04 08:31 | 50.66184 | 4.90352 | 14245 ft | 416 kts | 109° |
| 2026-05-04 08:33 | 50.59947 | 5.21760 | 18277 ft | 440 kts | 109° |
| 2026-05-04 08:33 | 50.58938 | 5.26315 | 18680 ft | 441 kts | 116° |
| 2026-05-04 08:35 | 50.44104 | 5.50383 | 21241 ft | 444 kts | 141° |
| 2026-05-04 08:35 | 50.41816 | 5.53644 | 21568 ft | 445 kts | 141° |
| 2026-05-04 08:35 | 50.39525 | 5.56928 | 21857 ft | 447 kts | 141° |
| 2026-05-04 08:35 | 50.37229 | 5.60231 | 22156 ft | 449 kts | 141° |
| 2026-05-04 08:37 | 50.24648 | 5.82243 | 23695 ft | 472 kts | 116° |
| 2026-05-04 08:37 | 50.23636 | 5.87082 | 23874 ft | 478 kts | 108° |
| 2026-05-04 08:37 | 50.22801 | 5.92119 | 24047 ft | 480 kts | 109° |
| 2026-05-04 08:38 | 50.21957 | 5.97159 | 24253 ft | 480 kts | 109° |
| 2026-05-04 08:38 | 50.21103 | 6.02203 | 24472 ft | 480 kts | 109° |
| 2026-05-04 08:38 | 50.20244 | 6.07234 | 24710 ft | 480 kts | 109° |
| 2026-05-04 08:40 | 50.19757 | 6.43946 | 26482 ft | 493 kts | 88° |
| 2026-05-04 08:40 | 50.20082 | 6.49274 | 26727 ft | 493 kts | 88° |
| 2026-05-04 08:40 | 50.20402 | 6.54606 | 26994 ft | 493 kts | 88° |
| 2026-05-04 08:41 | 50.20716 | 6.59940 | 27260 ft | 493 kts | 88° |
| 2026-05-04 08:41 | 50.21028 | 6.65272 | 27546 ft | 493 kts | 88° |
| 2026-05-04 08:41 | 50.21344 | 6.70603 | 27835 ft | 493 kts | 88° |
| 2026-05-04 08:41 | 50.21662 | 6.75925 | 28130 ft | 493 kts | 88° |
| 2026-05-04 08:42 | 50.21982 | 6.81255 | 28435 ft | 493 kts | 88° |
| 2026-05-04 08:42 | 50.22093 | 6.86578 | 28737 ft | 489 kts | 96° |
| 2026-05-04 08:42 | 50.21842 | 6.91858 | 28990 ft | 487 kts | 98° |
| 2026-05-04 08:42 | 50.21562 | 6.97130 | 29312 ft | 487 kts | 98° |
| 2026-05-04 08:43 | 50.21283 | 7.02395 | 29597 ft | 487 kts | 98° |
| 2026-05-04 08:43 | 50.21006 | 7.07651 | 29902 ft | 486 kts | 98° |
| 2026-05-04 08:43 | 50.20729 | 7.12923 | 30197 ft | 486 kts | 98° |
| 2026-05-04 08:43 | 50.20450 | 7.18178 | 30465 ft | 486 kts | 98° |
| 2026-05-04 08:44 | 50.20168 | 7.23419 | 30720 ft | 485 kts | 98° |
| 2026-05-04 08:44 | 50.19883 | 7.28663 | 30986 ft | 485 kts | 98° |
| 2026-05-04 08:46 | 50.16753 | 7.64887 | 32802 ft | 479 kts | 102° |
| 2026-05-04 08:46 | 50.16276 | 7.70025 | 33089 ft | 478 kts | 102° |
| 2026-05-04 08:46 | 50.15809 | 7.75146 | 33367 ft | 478 kts | 102° |
| 2026-05-04 08:46 | 50.15501 | 7.78546 | 33542 ft | 477 kts | 102° |
| 2026-05-04 08:47 | 50.15034 | 7.83669 | 33795 ft | 477 kts | 102° |
| 2026-05-04 08:47 | 50.14565 | 7.88774 | 34050 ft | 476 kts | 102° |
| 2026-05-04 08:47 | 50.13928 | 7.95615 | 34368 ft | 476 kts | 102° |
| 2026-05-04 08:47 | 50.13612 | 7.98983 | 34520 ft | 475 kts | 102° |
| 2026-05-04 08:48 | 50.13131 | 8.04071 | 34760 ft | 474 kts | 102° |
| 2026-05-04 08:48 | 50.12647 | 8.09152 | 34953 ft | 474 kts | 102° |
| 2026-05-04 08:48 | 50.12161 | 8.14240 | 35036 ft | 476 kts | 102° |
| 2026-05-04 08:49 | 50.11169 | 8.24523 | 35045 ft | 484 kts | 102° |
| 2026-05-04 08:50 | 50.08078 | 8.56035 | 35029 ft | 495 kts | 102° |
| 2026-05-04 08:50 | 50.07552 | 8.61329 | 35030 ft | 495 kts | 102° |
| 2026-05-04 08:51 | 50.06494 | 8.71907 | 35030 ft | 495 kts | 102° |
| 2026-05-04 08:51 | 50.05428 | 8.82484 | 35030 ft | 495 kts | 102° |
| 2026-05-04 08:52 | 50.04539 | 8.93120 | 35031 ft | 496 kts | 100° |
| 2026-05-04 08:52 | 50.03765 | 9.03791 | 35032 ft | 496 kts | 100° |
| 2026-05-04 08:54 | 50.00306 | 9.46349 | 35040 ft | 496 kts | 101° |
| 2026-05-04 08:55 | 49.99417 | 9.56914 | 35042 ft | 496 kts | 101° |
| 2026-05-04 08:55 | 49.98521 | 9.67544 | 35045 ft | 496 kts | 101° |
| 2026-05-04 09:01 | 49.82554 | 10.76063 | 35044 ft | 490 kts | 115° |
| 2026-05-04 09:01 | 49.79993 | 10.85838 | 35045 ft | 490 kts | 115° |
| 2026-05-04 09:02 | 49.77426 | 10.95622 | 35037 ft | 490 kts | 115° |
| 2026-05-04 09:02 | 49.74851 | 11.05381 | 35048 ft | 490 kts | 115° |
| 2026-05-04 09:03 | 49.72271 | 11.15127 | 35049 ft | 490 kts | 115° |
| 2026-05-04 09:03 | 49.69673 | 11.24862 | 35046 ft | 490 kts | 115° |
| 2026-05-04 09:04 | 49.67070 | 11.34580 | 35036 ft | 490 kts | 115° |
| 2026-05-04 09:04 | 49.64531 | 11.44321 | 35039 ft | 490 kts | 112° |
| 2026-05-04 09:05 | 49.62401 | 11.54338 | 35045 ft | 492 kts | 109° |
| 2026-05-04 09:05 | 49.60477 | 11.64377 | 35029 ft | 492 kts | 109° |
| 2026-05-04 09:06 | 49.58448 | 11.74448 | 35049 ft | 492 kts | 110° |
| 2026-05-04 09:08 | 49.49940 | 12.14388 | 35047 ft | 491 kts | 110° |
| 2026-05-04 09:08 | 49.47806 | 12.24331 | 35037 ft | 489 kts | 110° |
| 2026-05-04 09:09 | 49.45666 | 12.34253 | 35037 ft | 489 kts | 110° |
| 2026-05-04 09:09 | 49.43523 | 12.44168 | 35040 ft | 489 kts | 110° |
| 2026-05-04 09:10 | 49.41374 | 12.54076 | 35038 ft | 489 kts | 110° |
| 2026-05-04 09:10 | 49.39210 | 12.63968 | 35039 ft | 489 kts | 110° |
| 2026-05-04 09:11 | 49.37031 | 12.73845 | 35039 ft | 488 kts | 111° |
| 2026-05-04 09:11 | 49.34776 | 12.83673 | 35035 ft | 488 kts | 112° |
| 2026-05-04 09:12 | 49.32366 | 12.93401 | 35037 ft | 488 kts | 113° |
| 2026-05-04 09:14 | 49.22674 | 13.32244 | 35044 ft | 488 kts | 114° |
| 2026-05-04 09:14 | 49.20083 | 13.41844 | 35038 ft | 488 kts | 115° |
| 2026-05-04 09:15 | 49.17449 | 13.51405 | 35028 ft | 489 kts | 115° |
| 2026-05-04 09:15 | 49.14845 | 13.60930 | 35034 ft | 489 kts | 115° |
| 2026-05-04 09:17 | 49.03052 | 14.04083 | 35029 ft | 491 kts | 115° |
| 2026-05-04 09:18 | 49.00415 | 14.13627 | 34889 ft | 483 kts | 115° |
| 2026-05-04 09:18 | 48.99115 | 14.18308 | 34398 ft | 478 kts | 115° |
| 2026-05-04 09:18 | 48.97817 | 14.22958 | 33889 ft | 476 kts | 115° |
| 2026-05-04 09:19 | 48.96521 | 14.27579 | 33339 ft | 474 kts | 114° |
| 2026-05-04 09:19 | 48.95160 | 14.32172 | 32802 ft | 478 kts | 120° |
| 2026-05-04 09:19 | 48.93404 | 14.36446 | 32249 ft | 475 kts | 129° |
| 2026-05-04 09:19 | 48.91402 | 14.40413 | 31684 ft | 472 kts | 129° |
| 2026-05-04 09:20 | 48.89410 | 14.44352 | 31118 ft | 468 kts | 129° |
| 2026-05-04 09:20 | 48.87422 | 14.48284 | 30591 ft | 472 kts | 129° |
| 2026-05-04 09:20 | 48.85418 | 14.52246 | 30041 ft | 473 kts | 129° |
| 2026-05-04 09:20 | 48.83420 | 14.56194 | 29415 ft | 470 kts | 129° |
| 2026-05-04 09:21 | 48.81467 | 14.60053 | 28800 ft | 465 kts | 129° |
| 2026-05-04 09:21 | 48.79482 | 14.63972 | 28194 ft | 460 kts | 129° |
| 2026-05-04 09:21 | 48.77544 | 14.67787 | 27609 ft | 455 kts | 129° |
| 2026-05-04 09:21 | 48.75619 | 14.71566 | 27037 ft | 451 kts | 129° |
| 2026-05-04 09:22 | 48.73691 | 14.75335 | 26449 ft | 468 kts | 129° |
| 2026-05-04 09:22 | 48.71660 | 14.79294 | 25797 ft | 481 kts | 129° |
| 2026-05-04 09:22 | 48.69601 | 14.83302 | 25160 ft | 484 kts | 129° |
| 2026-05-04 09:22 | 48.67536 | 14.87322 | 24539 ft | 483 kts | 129° |
| 2026-05-04 09:23 | 48.65481 | 14.91327 | 23931 ft | 479 kts | 129° |
| 2026-05-04 09:23 | 48.63450 | 14.95284 | 23273 ft | 474 kts | 129° |
| 2026-05-04 09:23 | 48.61442 | 14.99203 | 22569 ft | 469 kts | 128° |
| 2026-05-04 09:23 | 48.59679 | 15.03312 | 21877 ft | 464 kts | 120° |
| 2026-05-04 09:25 | 48.53541 | 15.35163 | 17290 ft | 442 kts | 107° |
| 2026-05-04 09:25 | 48.52760 | 15.39625 | 16617 ft | 438 kts | 107° |
| 2026-05-04 09:26 | 48.51812 | 15.43948 | 15950 ft | 431 kts | 116° |
| 2026-05-04 09:26 | 48.50430 | 15.47908 | 15311 ft | 424 kts | 124° |
| 2026-05-04 09:26 | 48.48906 | 15.51696 | 14670 ft | 421 kts | 124° |
| 2026-05-04 09:26 | 48.47392 | 15.55452 | 14069 ft | 417 kts | 123° |
| 2026-05-04 09:27 | 48.45890 | 15.59175 | 13442 ft | 414 kts | 124° |
| 2026-05-04 09:27 | 48.44407 | 15.62857 | 12789 ft | 410 kts | 123° |
| 2026-05-04 09:27 | 48.42941 | 15.66505 | 12144 ft | 405 kts | 123° |
| 2026-05-04 09:27 | 48.41492 | 15.70110 | 11514 ft | 400 kts | 123° |
| 2026-05-04 09:28 | 48.40052 | 15.73679 | 10896 ft | 397 kts | 123° |
| 2026-05-04 09:28 | 48.38638 | 15.77166 | 10341 ft | 394 kts | 123° |
| 2026-05-04 09:28 | 48.37213 | 15.80671 | 9782 ft | 391 kts | 123° |
| 2026-05-04 09:28 | 48.35799 | 15.84150 | 9177 ft | 388 kts | 123° |
| 2026-05-04 09:29 | 48.34399 | 15.87601 | 8600 ft | 386 kts | 123° |
| 2026-05-04 09:29 | 48.33006 | 15.91034 | 8020 ft | 384 kts | 123° |
| 2026-05-04 09:29 | 48.31618 | 15.94441 | 7448 ft | 381 kts | 123° |
| 2026-05-04 09:29 | 48.30271 | 15.97853 | 6898 ft | 379 kts | 120° |
| 2026-05-04 09:30 | 48.29053 | 16.01355 | 6373 ft | 378 kts | 118° |
| 2026-05-04 09:30 | 48.27900 | 16.04889 | 5874 ft | 376 kts | 117° |
| 2026-05-04 09:30 | 48.26763 | 16.08414 | 5371 ft | 374 kts | 117° |
| 2026-05-04 09:30 | 48.25625 | 16.11912 | 4996 ft | 372 kts | 117° |
| 2026-05-04 09:31 | 48.24505 | 16.15417 | 4625 ft | 371 kts | 117° |
| 2026-05-04 09:31 | 48.23399 | 16.18889 | 4260 ft | 364 kts | 117° |
| 2026-05-04 09:31 | 48.22321 | 16.22252 | 3952 ft | 351 kts | 117° |
| 2026-05-04 09:31 | 48.21286 | 16.25467 | 3714 ft | 335 kts | 117° |
| 2026-05-04 09:32 | 48.20299 | 16.28534 | 3467 ft | 322 kts | 117° |
| 2026-05-04 09:32 | 48.19364 | 16.31440 | 3210 ft | 297 kts | 116° |
| 2026-05-04 09:34 | 48.14665 | 16.45996 | 1697 ft | 152 kts | 123° |
| 2026-05-04 09:34 | 48.14222 | 16.47363 | 1494 ft | 140 kts | 122° |
| 2026-05-04 09:34 | 48.13813 | 16.48623 | 1319 ft | 131 kts | 123° |
| 2026-05-04 09:34 | 48.13412 | 16.49852 | 1142 ft | 131 kts | 117° |
| 2026-05-04 09:35 | 48.13014 | 16.51077 | 978 ft | 128 kts | 121° |
| 2026-05-04 09:35 | 48.12759 | 16.51863 | 845 ft | 128 kts | 120° |
| 2026-05-04 09:35 | 48.12367 | 16.53066 | 681 ft | 130 kts | 119° |
| 2026-05-04 09:35 | 48.11987 | 16.54236 | 614 ft | 111 kts | 115° |
| 2026-05-04 09:37 | 48.11339 | 16.57349 | 609 ft | 21 kts | 26° |
| 2026-05-04 09:37 | 48.11468 | 16.57443 | 613 ft | 20 kts | 26° |
| 2026-05-04 09:38 | 48.11593 | 16.57436 | 612 ft | 18 kts | 346° |
| 2026-05-04 09:38 | 48.11725 | 16.57381 | 618 ft | 24 kts | 345° |
| 2026-05-04 09:38 | 48.11842 | 16.57253 | 614 ft | 21 kts | 296° |
| 2026-05-04 09:38 | 48.11901 | 16.57068 | 609 ft | 19 kts | 295° |
| 2026-05-04 09:39 | 48.11955 | 16.56901 | 617 ft | 16 kts | 296° |
| 2026-05-04 09:39 | 48.11941 | 16.56800 | 609 ft | 11 kts | 207° |
| 2026-05-04 09:39 | 48.11901 | 16.56771 | 609 ft | 1 kts | 206° |
| 2026-05-04 09:39 | 48.11897 | 16.56767 | 609 ft | 0 kts | 206° |